createdAt,value
2023-02-03T00:01:17.537Z,1.37
2023-02-03T00:03:18.426Z,1.50
2023-02-03T00:05:19.556Z,0.55
2023-02-03T00:07:20.416Z,0.30
2023-02-03T00:09:21.162Z,1.98
2023-02-03T00:11:22.331Z,1.05
2023-02-03T00:13:25.087Z,0.20
2023-02-03T00:15:26.358Z,3.58
2023-02-03T00:17:27.128Z,0.30
2023-02-03T00:19:27.926Z,1.52
2023-02-03T00:21:28.788Z,0.20
2023-02-03T00:23:31.250Z,1.20
2023-02-03T00:25:32.013Z,0.28
2023-02-03T00:27:32.764Z,2.30
2023-02-03T00:29:33.830Z,2.20
2023-02-03T00:31:34.844Z,0.45
2023-02-03T00:33:35.769Z,1.25
2023-02-03T00:35:39.805Z,0.62
2023-02-03T00:37:40.662Z,0.33
2023-02-03T00:39:41.630Z,0.90
2023-02-03T00:41:42.409Z,0.75
2023-02-03T00:43:43.259Z,0.50
2023-02-03T00:45:44.044Z,0.37
2023-02-03T00:47:45.097Z,1.20
2023-02-03T00:49:47.551Z,0.75
2023-02-03T00:51:48.330Z,0.72
2023-02-03T00:53:49.160Z,0.75
2023-02-03T00:55:51.273Z,1.35
2023-02-03T00:57:52.025Z,1.27
2023-02-03T00:59:54.194Z,0.65
2023-02-03T01:01:55.034Z,0.23
2023-02-03T01:03:56.177Z,1.30
2023-02-03T01:05:58.831Z,8.98
2023-02-03T01:08:00.190Z,4.87
2023-02-03T01:10:00.946Z,1.75
2023-02-03T01:12:01.907Z,2.35
2023-02-03T01:14:02.755Z,1.17
2023-02-03T01:16:05.454Z,2.05
2023-02-03T01:18:08.126Z,1.72
2023-02-03T01:20:11.394Z,1.45
2023-02-03T01:22:12.267Z,1.85
2023-02-03T01:24:14.328Z,4.17
2023-02-03T01:26:15.991Z,2.30
2023-02-03T01:28:17.089Z,1.25
2023-02-03T01:30:19.418Z,9.95
2023-02-03T01:32:21.253Z,0.10
2023-02-03T01:34:22.005Z,3.12
2023-02-03T01:36:24.155Z,38.95
2023-02-03T01:38:25.055Z,3.62
2023-02-03T01:40:26.210Z,1.22
2023-02-03T01:42:28.079Z,0.80
2023-02-03T01:44:43.079Z,9.78
2023-02-03T01:46:48.116Z,4.00
2023-02-03T01:48:49.355Z,1.98
2023-02-03T01:50:51.735Z,6.92
2023-02-03T01:52:54.405Z,19.35
2023-02-03T01:54:56.856Z,6.42
2023-02-03T01:57:02.644Z,13.35
2023-02-03T01:59:03.599Z,11.57
2023-02-03T02:01:04.625Z,3.95
2023-02-03T02:03:06.308Z,11.73
2023-02-03T02:05:09.131Z,5.92
2023-02-03T02:07:10.405Z,12.07
2023-02-03T02:09:13.765Z,6.35
2023-02-03T02:11:17.831Z,6.28
2023-02-03T02:13:19.298Z,12.58
2023-02-03T02:15:23.780Z,2.08
2023-02-03T02:17:44.597Z,6.95
2023-02-03T02:19:47.253Z,3.15
2023-02-03T02:22:09.675Z,17.05
2023-02-03T02:24:28.083Z,1.20
2023-02-03T02:26:39.861Z,6.20
2023-02-03T02:28:59.813Z,4.45
2023-02-03T02:31:02.593Z,4.40
2023-02-03T02:33:08.239Z,5.12
2023-02-03T02:35:10.927Z,2.17
2023-02-03T02:37:30.437Z,3.52
2023-02-03T02:39:39.956Z,7.25
2023-02-03T02:41:48.701Z,7.85
2023-02-03T02:43:51.625Z,4.70
2023-02-03T02:45:55.608Z,7.90
2023-02-03T02:48:02.747Z,8.90
2023-02-03T02:50:05.428Z,5.72
2023-02-03T02:52:07.907Z,3.52
2023-02-03T02:54:10.708Z,0.20
2023-02-03T02:56:13.736Z,3.90
2023-02-03T02:58:16.354Z,5.00
2023-02-03T03:00:17.949Z,9.80
2023-02-03T03:02:18.705Z,5.62
2023-02-03T03:04:24.154Z,1.90
2023-02-03T03:06:37.873Z,6.53
2023-02-03T03:08:40.643Z,7.80
2023-02-03T03:10:42.568Z,2.55
2023-02-03T03:12:45.228Z,13.43
2023-02-03T03:14:51.639Z,7.10
2023-02-03T03:16:54.312Z,15.38
2023-02-03T03:18:56.998Z,4.20
2023-02-03T03:21:01.070Z,9.03
2023-02-03T03:23:09.944Z,10.30
2023-02-03T03:25:12.677Z,1.45
2023-02-03T03:27:18.432Z,6.22
2023-02-03T03:29:21.212Z,3.80
2023-02-03T03:31:22.031Z,4.55
2023-02-03T03:33:23.341Z,4.85
2023-02-03T03:35:26.108Z,8.08
2023-02-03T03:37:28.787Z,2.17
2023-02-03T03:39:46.610Z,3.55
2023-02-03T03:41:52.141Z,13.90
2023-02-03T03:43:54.836Z,8.80
2023-02-03T03:46:00.624Z,8.45
2023-02-03T03:48:06.352Z,9.28
2023-02-03T03:50:10.392Z,0.65
2023-02-03T03:52:13.053Z,1.15
2023-02-03T03:54:15.417Z,6.72
2023-02-03T03:56:18.137Z,10.03
2023-02-03T03:58:23.593Z,14.58
2023-02-03T04:00:26.118Z,6.15
2023-02-03T04:02:28.106Z,9.23
2023-02-03T04:04:30.192Z,3.72
2023-02-03T04:06:30.971Z,16.85
2023-02-03T04:08:31.728Z,3.30
2023-02-03T04:10:36.820Z,9.40
2023-02-03T04:12:37.722Z,18.00
2023-02-03T04:14:38.779Z,5.90
2023-02-03T04:16:39.724Z,1.92
2023-02-03T04:18:40.593Z,7.30
2023-02-03T04:20:41.646Z,6.87
2023-02-03T04:22:42.602Z,19.07
2023-02-03T04:24:43.386Z,1.98
2023-02-03T04:26:44.307Z,4.33
2023-02-03T04:28:45.127Z,7.80
2023-02-03T04:30:46.021Z,13.13
2023-02-03T04:32:47.048Z,7.70
2023-02-03T04:34:47.999Z,4.65
2023-02-03T04:36:48.767Z,4.50
2023-02-03T04:38:49.619Z,6.70
2023-02-03T04:40:50.674Z,24.50
2023-02-03T04:42:51.430Z,2.77
2023-02-03T04:44:52.191Z,5.53
2023-02-03T04:46:53.022Z,1.60
2023-02-03T04:48:53.815Z,11.05
2023-02-03T04:50:54.567Z,5.85
2023-02-03T04:52:55.315Z,18.35
2023-02-03T04:54:56.116Z,0.33
2023-02-03T04:56:56.903Z,10.45
2023-02-03T04:58:57.649Z,2.75
2023-02-03T05:01:00.355Z,3.27
2023-02-03T05:03:01.294Z,4.42
2023-02-03T05:05:02.333Z,7.85
2023-02-03T05:07:03.103Z,3.35
2023-02-03T05:09:04.147Z,0.80
2023-02-03T05:11:06.588Z,4.80
2023-02-03T05:13:07.561Z,1.72
2023-02-03T05:15:08.490Z,6.30
2023-02-03T05:17:09.356Z,3.10
2023-02-03T05:19:10.098Z,2.37
2023-02-03T05:21:10.863Z,2.27
2023-02-03T05:23:11.617Z,8.65
2023-02-03T05:25:13.084Z,6.90
2023-02-03T05:27:14.021Z,8.33
2023-02-03T05:29:14.779Z,3.92
2023-02-03T05:31:15.683Z,4.12
2023-02-03T05:33:16.583Z,1.98
2023-02-03T05:35:17.372Z,1.77
2023-02-03T05:37:18.210Z,5.28
2023-02-03T05:39:18.977Z,23.05
2023-02-03T05:41:38.182Z,2.47
2023-02-03T05:43:39.026Z,8.55
2023-02-03T05:45:40.046Z,1.52
2023-02-03T05:47:40.931Z,6.28
2023-02-03T05:49:41.686Z,2.50
2023-02-03T05:51:42.738Z,5.90
2023-02-03T05:53:43.602Z,4.72
2023-02-03T05:55:44.819Z,2.75
2023-02-03T05:57:45.619Z,0.30
2023-02-03T05:59:46.368Z,3.98
2023-02-03T06:01:47.119Z,0.50
2023-02-03T06:03:48.137Z,2.42
2023-02-03T06:05:49.445Z,1.50
2023-02-03T06:07:50.202Z,5.53
2023-02-03T06:09:50.987Z,2.05
2023-02-03T06:11:51.726Z,1.57
2023-02-03T06:13:52.483Z,1.30
2023-02-03T06:15:53.435Z,0.70
2023-02-03T06:17:54.191Z,1.67
2023-02-03T06:19:54.949Z,3.90
2023-02-03T06:21:55.859Z,0.33
2023-02-03T06:23:56.958Z,3.40
2023-02-03T06:25:59.633Z,4.33
2023-02-03T06:28:00.568Z,2.87
2023-02-03T06:30:01.555Z,4.92
2023-02-03T06:32:02.593Z,7.30
2023-02-03T06:34:03.641Z,7.58
2023-02-03T06:36:04.996Z,1.72
2023-02-03T06:38:05.866Z,1.75
2023-02-03T06:40:07.205Z,4.87
2023-02-03T06:42:07.970Z,1.60
2023-02-03T06:44:08.814Z,2.33
2023-02-03T06:46:09.666Z,4.67
2023-02-03T06:48:10.477Z,7.87
2023-02-03T06:50:12.334Z,4.58
2023-02-03T06:52:14.706Z,12.47
2023-02-03T06:54:15.817Z,13.58
2023-02-03T06:56:16.564Z,1.77
2023-02-03T06:58:17.390Z,5.12
2023-02-03T07:00:19.321Z,11.48
2023-02-03T07:02:20.830Z,10.75
2023-02-03T07:04:21.997Z,13.75
2023-02-03T07:06:23.466Z,4.40
2023-02-03T07:08:24.260Z,10.80
2023-02-03T07:10:25.109Z,17.15
2023-02-03T07:12:26.120Z,4.40
2023-02-03T07:14:27.000Z,17.90
2023-02-03T07:16:28.068Z,15.93
2023-02-03T07:18:46.332Z,13.48
2023-02-03T07:20:32.972Z,7.15
2023-02-03T07:22:35.586Z,9.50
2023-02-03T07:24:36.348Z,9.90
2023-02-03T07:26:38.428Z,11.97
2023-02-03T07:28:39.545Z,12.37
2023-02-03T07:30:40.311Z,7.90
2023-02-03T07:32:41.180Z,14.25
2023-02-03T07:34:41.937Z,6.40
2023-02-03T07:36:44.722Z,2.37
2023-02-03T07:38:45.511Z,5.15
2023-02-03T07:40:46.494Z,8.80
2023-02-03T07:42:47.857Z,13.70
2023-02-03T07:44:48.614Z,8.58
2023-02-03T07:46:49.405Z,10.78
2023-02-03T07:48:50.351Z,9.13
2023-02-03T07:50:52.215Z,9.00
2023-02-03T07:52:54.787Z,8.78
2023-02-03T07:54:55.672Z,10.43
2023-02-03T07:56:56.434Z,3.33
2023-02-03T07:58:57.930Z,11.25
2023-02-03T08:00:58.800Z,8.20
2023-02-03T08:03:01.469Z,2.85
2023-02-03T08:05:02.485Z,16.80
2023-02-03T08:07:03.677Z,7.25
2023-02-03T08:09:04.555Z,7.47
2023-02-03T08:11:05.326Z,4.45
2023-02-03T08:13:06.197Z,7.33
2023-02-03T08:15:07.897Z,7.65
2023-02-03T08:17:08.761Z,4.70
2023-02-03T08:19:09.820Z,8.23
2023-02-03T08:21:10.598Z,6.05
2023-02-03T08:23:11.743Z,5.05
2023-02-03T08:25:12.623Z,4.53
2023-02-03T08:27:14.294Z,13.53
2023-02-03T08:29:15.109Z,20.08
2023-02-03T08:31:16.005Z,20.80
2023-02-03T08:33:16.904Z,13.03
2023-02-03T08:35:17.774Z,11.18
2023-02-03T08:37:20.042Z,17.52
2023-02-03T08:39:21.145Z,17.20
2023-02-03T08:41:22.041Z,18.27
2023-02-03T08:43:22.901Z,11.20
2023-02-03T08:45:23.810Z,28.60
2023-02-03T08:47:24.852Z,15.35
2023-02-03T08:49:26.558Z,21.68
2023-02-03T08:51:27.653Z,21.48
2023-02-03T08:53:28.532Z,21.35
2023-02-03T08:55:29.522Z,20.90
2023-02-03T08:57:36.742Z,29.55
2023-02-03T08:59:38.349Z,30.68
2023-02-03T09:01:43.678Z,14.00
2023-02-03T09:03:44.581Z,12.20
2023-02-03T09:07:44.675Z,31.35
2023-02-03T09:09:45.609Z,26.45
2023-02-03T09:11:46.560Z,19.57
2023-02-03T09:13:47.949Z,30.02
2023-02-03T09:15:48.965Z,11.50
2023-02-03T09:17:50.040Z,13.38
2023-02-03T09:19:50.982Z,49.50
2023-02-03T09:21:51.961Z,28.25
2023-02-03T09:23:52.828Z,13.85
2023-02-03T09:25:53.708Z,7.58
2023-02-03T09:27:54.570Z,34.92
2023-02-03T09:29:57.366Z,21.90
2023-02-03T09:31:59.338Z,34.53
2023-02-03T09:34:00.368Z,13.40
2023-02-03T09:36:01.256Z,32.78
2023-02-03T09:38:02.219Z,35.95
2023-02-03T09:40:03.352Z,21.07
2023-02-03T09:42:06.281Z,15.00
2023-02-03T09:44:09.067Z,24.90
2023-02-03T09:46:11.875Z,20.08
2023-02-03T09:48:17.428Z,51.65
2023-02-03T09:50:20.243Z,14.35
2023-02-03T09:52:31.707Z,14.23
2023-02-03T09:54:42.446Z,22.25
2023-02-03T09:56:45.230Z,21.87
2023-02-03T09:58:46.129Z,24.55
2023-02-03T10:00:48.971Z,29.98
2023-02-03T10:02:51.788Z,17.82
2023-02-03T10:05:11.631Z,24.30
2023-02-03T10:07:19.222Z,29.48
2023-02-03T10:09:28.358Z,9.78
2023-02-03T10:11:34.060Z,28.75
2023-02-03T10:13:41.540Z,30.72
2023-02-03T10:15:44.421Z,30.60
2023-02-03T10:17:50.121Z,22.95
2023-02-03T10:19:58.790Z,32.30
2023-02-03T10:22:00.877Z,21.77
2023-02-03T10:24:02.999Z,8.10
2023-02-03T10:26:05.892Z,14.23
2023-02-03T10:28:12.215Z,15.45
2023-02-03T10:30:21.038Z,29.12
2023-02-03T10:32:23.524Z,18.42
2023-02-03T10:34:24.814Z,30.72
2023-02-03T10:36:39.595Z,14.70
2023-02-03T10:38:55.076Z,35.55
2023-02-03T10:40:56.321Z,35.15
2023-02-03T10:43:17.275Z,36.10
2023-02-03T10:45:19.662Z,17.42
2023-02-03T10:47:22.463Z,9.28
2023-02-03T10:49:25.200Z,40.63
2023-02-03T10:51:31.195Z,18.40
2023-02-03T10:53:33.598Z,32.15
2023-02-03T10:55:34.471Z,30.57
2023-02-03T10:57:36.261Z,37.60
2023-02-03T10:59:39.056Z,20.30
2023-02-03T11:01:47.753Z,34.08
2023-02-03T11:03:57.302Z,21.65
2023-02-03T11:06:05.796Z,20.88
2023-02-03T11:08:14.352Z,35.70
2023-02-03T11:10:29.149Z,40.28
2023-02-03T11:12:30.261Z,16.67
2023-02-03T11:14:33.106Z,31.93
2023-02-03T11:16:35.606Z,26.30
2023-02-03T11:18:56.771Z,12.93
2023-02-03T11:20:58.048Z,10.53
2023-02-03T11:22:59.358Z,38.83
2023-02-03T11:25:01.621Z,18.55
2023-02-03T11:27:06.105Z,25.30
2023-02-03T11:29:09.027Z,17.00
2023-02-03T11:31:17.545Z,32.75
2023-02-03T11:33:19.908Z,28.20
2023-02-03T11:35:23.845Z,23.42
2023-02-03T11:37:30.161Z,19.60
2023-02-03T11:39:35.060Z,11.83
2023-02-03T11:41:36.946Z,30.88
2023-02-03T11:43:37.899Z,22.13
2023-02-03T11:45:41.303Z,23.70
2023-02-03T11:47:56.336Z,16.35
2023-02-03T11:50:04.886Z,14.28
2023-02-03T11:52:19.711Z,24.10
2023-02-03T11:54:40.859Z,23.67
2023-02-03T11:57:01.127Z,18.87
2023-02-03T11:59:10.074Z,18.17
2023-02-03T12:01:25.205Z,19.57
2023-02-03T12:03:31.434Z,23.52
2023-02-03T12:05:34.246Z,8.45
2023-02-03T12:07:37.028Z,17.45
2023-02-03T12:09:39.750Z,29.45
2023-02-03T12:11:59.469Z,12.55
2023-02-03T12:14:08.018Z,20.72
2023-02-03T12:16:10.751Z,16.48
2023-02-03T12:18:13.609Z,30.60
2023-02-03T12:20:34.546Z,17.07
2023-02-03T12:22:44.458Z,23.25
2023-02-03T12:24:59.601Z,23.62
2023-02-03T12:27:02.394Z,22.95
2023-02-03T12:29:05.278Z,14.03
2023-02-03T12:31:11.436Z,15.80
2023-02-03T12:33:26.480Z,4.53
2023-02-03T12:35:31.654Z,19.82
2023-02-03T12:37:33.840Z,18.62
2023-02-03T12:39:36.648Z,26.20
2023-02-03T12:41:39.263Z,12.73
2023-02-03T12:43:42.021Z,22.40
2023-02-03T12:45:44.746Z,19.45
2023-02-03T12:47:48.925Z,30.40
2023-02-03T12:49:52.093Z,29.42
2023-02-03T12:51:58.851Z,27.67
2023-02-03T12:54:04.552Z,25.62
2023-02-03T12:56:13.154Z,33.45
2023-02-03T12:58:21.711Z,21.62
2023-02-03T13:00:30.855Z,27.80
2023-02-03T13:02:34.007Z,19.80
2023-02-03T13:04:43.051Z,17.45
2023-02-03T13:06:45.895Z,11.45
2023-02-03T13:08:51.621Z,22.95
2023-02-03T13:10:54.309Z,21.75
2023-02-03T13:12:56.897Z,11.60
2023-02-03T13:15:08.995Z,25.57
2023-02-03T13:17:14.556Z,19.73
2023-02-03T13:19:20.387Z,19.60
2023-02-03T13:21:22.985Z,9.28
2023-02-03T13:23:24.198Z,25.43
2023-02-03T13:25:27.035Z,39.35
2023-02-03T13:27:46.818Z,41.80
2023-02-03T13:29:58.835Z,19.95
2023-02-03T13:32:10.875Z,20.32
2023-02-03T13:34:30.637Z,16.60
2023-02-03T13:36:51.604Z,21.10
2023-02-03T13:38:54.449Z,17.17
2023-02-03T13:40:57.342Z,24.60
2023-02-03T13:43:00.156Z,30.02
2023-02-03T13:45:19.828Z,20.97
2023-02-03T13:47:22.686Z,20.77
2023-02-03T13:49:31.007Z,33.90
2023-02-03T13:51:34.236Z,23.75
2023-02-03T13:53:37.077Z,8.08
2023-02-03T13:55:39.750Z,45.08
2023-02-03T13:57:40.665Z,13.62
2023-02-03T13:59:42.951Z,26.65
2023-02-03T14:01:45.080Z,31.15
2023-02-03T14:03:46.198Z,15.93
2023-02-03T14:05:48.915Z,28.45
2023-02-03T14:07:49.895Z,29.20
2023-02-03T14:10:09.210Z,9.43
2023-02-03T14:12:14.669Z,13.20
2023-02-03T14:14:19.389Z,33.33
2023-02-03T14:16:24.564Z,23.20
2023-02-03T14:18:33.121Z,19.52
2023-02-03T14:20:35.902Z,10.93
2023-02-03T14:22:38.768Z,17.52
2023-02-03T14:24:41.692Z,21.75
2023-02-03T14:26:44.429Z,30.35
2023-02-03T14:28:46.345Z,14.38
2023-02-03T14:31:04.903Z,12.23
2023-02-03T14:33:05.921Z,31.97
2023-02-03T14:35:08.660Z,17.30
2023-02-03T14:37:11.360Z,34.55
2023-02-03T14:39:20.551Z,21.62
2023-02-03T14:41:23.380Z,22.22
2023-02-03T14:43:26.196Z,16.07
2023-02-03T14:45:48.305Z,15.75
2023-02-03T14:47:51.089Z,11.15
2023-02-03T14:49:56.705Z,7.72
2023-02-03T14:52:16.519Z,23.00
2023-02-03T14:54:28.437Z,30.20
2023-02-03T14:57:06.733Z,35.17
2023-02-03T14:59:09.540Z,35.58
2023-02-03T15:01:29.347Z,41.30
2023-02-03T15:03:30.579Z,20.08
2023-02-03T15:05:33.373Z,7.83
2023-02-03T15:07:41.121Z,16.55
2023-02-03T15:09:45.227Z,27.95
2023-02-03T15:11:47.241Z,20.37
2023-02-03T15:13:48.129Z,21.87
2023-02-03T15:15:50.163Z,24.32
2023-02-03T15:17:52.425Z,14.78
2023-02-03T15:19:53.503Z,4.25
2023-02-03T15:21:54.399Z,19.02
2023-02-03T15:23:55.373Z,20.90
2023-02-03T15:25:57.255Z,22.82
2023-02-03T15:28:16.190Z,16.48
2023-02-03T15:30:27.348Z,7.33
2023-02-03T15:32:30.121Z,7.33
2023-02-03T15:34:45.046Z,36.63
2023-02-03T15:36:47.832Z,18.85
2023-02-03T15:38:50.616Z,12.45
2023-02-03T15:40:53.893Z,23.98
2023-02-03T15:43:02.828Z,6.35
2023-02-03T15:45:05.626Z,18.12
2023-02-03T15:47:08.449Z,21.90
2023-02-03T15:49:14.191Z,20.43
2023-02-03T15:51:21.348Z,22.50
2023-02-03T15:53:34.452Z,22.05
2023-02-03T15:55:34.352Z,35.33
2023-02-03T15:57:36.621Z,21.65
2023-02-03T15:59:39.727Z,17.23
2023-02-03T16:01:40.696Z,33.92
2023-02-03T16:03:46.332Z,37.55
2023-02-03T16:05:49.047Z,40.35
2023-02-03T16:07:50.194Z,21.85
2023-02-03T16:09:51.571Z,8.73
2023-02-03T16:12:06.775Z,22.27
2023-02-03T16:14:09.523Z,13.30
2023-02-03T16:16:15.135Z,27.98
2023-02-03T16:18:17.027Z,19.80
2023-02-03T16:20:19.730Z,23.85
2023-02-03T16:22:28.828Z,25.02
2023-02-03T16:24:39.533Z,38.55
2023-02-03T16:26:40.471Z,18.10
2023-02-03T16:29:03.343Z,18.75
2023-02-03T16:31:38.559Z,27.55
2023-02-03T16:33:57.952Z,11.60
2023-02-03T16:36:19.738Z,31.60
2023-02-03T16:38:39.195Z,39.60
2023-02-03T16:40:59.047Z,16.77
2023-02-03T16:43:19.524Z,20.62
2023-02-03T16:45:39.411Z,21.00
2023-02-03T16:47:58.766Z,31.77
2023-02-03T16:50:29.280Z,10.82
2023-02-03T16:52:20.866Z,13.18
2023-02-03T16:54:21.767Z,19.15
2023-02-03T16:56:22.555Z,7.42
2023-02-03T16:58:23.633Z,32.75
2023-02-03T17:00:24.504Z,25.37
2023-02-03T17:02:25.326Z,11.97
2023-02-03T17:04:26.177Z,5.62
2023-02-03T17:06:27.385Z,24.02
2023-02-03T17:08:28.285Z,19.35
2023-02-03T17:10:29.147Z,17.35
2023-02-03T17:12:32.040Z,15.08
2023-02-03T17:14:32.952Z,19.00
2023-02-03T17:16:33.906Z,1.35
2023-02-03T17:18:35.168Z,9.30
2023-02-03T17:20:36.338Z,24.52
2023-02-03T17:22:39.026Z,11.93
2023-02-03T17:24:39.843Z,23.73
2023-02-03T17:26:40.617Z,13.03
2023-02-03T17:28:42.428Z,19.02
2023-02-03T17:30:43.684Z,24.23
2023-02-03T17:32:44.647Z,13.48
2023-02-03T17:34:45.524Z,18.55
2023-02-03T17:36:46.392Z,14.80
2023-02-03T17:55:05.535Z,15.08
2023-02-03T17:57:06.327Z,21.15
2023-02-03T17:59:07.724Z,27.52
2023-02-03T18:01:11.838Z,8.38
2023-02-03T18:03:12.700Z,8.55
2023-02-03T18:05:13.551Z,18.10
2023-02-03T18:07:14.409Z,16.17
2023-02-03T18:09:15.805Z,14.28
2023-02-03T18:11:17.297Z,14.75
2023-02-03T18:13:18.218Z,4.05
2023-02-03T18:15:19.092Z,7.20
2023-02-03T18:17:19.903Z,13.22
2023-02-03T18:19:20.809Z,11.00
2023-02-03T18:21:22.801Z,18.32
2023-02-03T18:23:23.610Z,14.98
2023-02-03T18:25:24.485Z,6.58
2023-02-03T18:27:25.377Z,18.77
2023-02-03T18:29:26.886Z,26.82
2023-02-03T18:31:27.840Z,9.43
2023-02-03T18:33:28.956Z,20.80
2023-02-03T18:35:31.650Z,12.28
2023-02-03T18:37:32.460Z,14.10
2023-02-03T18:39:33.465Z,11.03
2023-02-03T18:41:35.761Z,16.73
2023-02-03T18:43:36.552Z,16.32
2023-02-03T18:45:37.926Z,11.48
2023-02-03T18:47:38.736Z,5.47
2023-02-03T18:49:40.173Z,12.73
2023-02-03T18:51:41.065Z,7.30
2023-02-03T18:53:43.943Z,8.10
2023-02-03T18:55:44.840Z,4.92
2023-02-03T18:57:46.237Z,1.98
2023-02-03T18:59:50.263Z,1.10
2023-02-03T19:01:51.169Z,2.75
2023-02-03T19:03:53.249Z,10.18
2023-02-03T19:05:54.469Z,6.35
2023-02-03T19:07:55.339Z,11.40
2023-02-03T19:09:56.215Z,6.05
2023-02-03T19:11:58.315Z,2.52
2023-02-03T19:13:59.200Z,4.40
2023-02-03T19:16:01.645Z,5.53
2023-02-03T19:18:02.745Z,1.57
2023-02-03T19:20:05.208Z,3.37
2023-02-03T19:22:05.990Z,6.40
2023-02-03T19:24:06.940Z,1.00
2023-02-03T19:26:09.117Z,0.40
2023-02-03T19:28:17.456Z,6.42
2023-02-03T19:30:13.541Z,9.95
2023-02-03T19:32:14.365Z,1.37
2023-02-03T19:34:16.015Z,2.17
2023-02-03T19:36:17.044Z,8.00
2023-02-03T19:38:17.927Z,4.90
2023-02-03T19:40:18.941Z,4.78
2023-02-03T19:42:19.753Z,0.60
2023-02-03T19:44:20.629Z,1.72
2023-02-03T19:46:21.541Z,2.83
2023-02-03T19:48:22.455Z,4.50
2023-02-03T19:50:23.354Z,0.45
2023-02-03T19:52:24.149Z,2.33
2023-02-03T19:54:24.950Z,2.62
2023-02-03T19:56:25.845Z,3.80
2023-02-03T19:58:26.746Z,1.87
2023-02-03T20:00:27.938Z,1.42
2023-02-03T20:02:29.029Z,2.90
2023-02-03T20:04:29.925Z,2.67
2023-02-03T20:06:30.997Z,3.98
2023-02-03T20:08:31.913Z,2.55
2023-02-03T20:10:33.142Z,0.50
2023-02-03T20:12:34.237Z,3.12
2023-02-03T20:14:35.126Z,1.62
2023-02-03T20:16:36.084Z,3.67
2023-02-03T20:18:37.423Z,1.75
2023-02-03T20:20:38.244Z,3.27
2023-02-03T20:22:39.352Z,3.60
2023-02-03T20:24:40.149Z,0.62
2023-02-03T20:26:41.015Z,2.45
2023-02-03T20:28:41.811Z,3.70
2023-02-03T20:30:42.794Z,0.47
2023-02-03T20:32:43.654Z,4.85
2023-02-03T20:34:44.459Z,2.92
2023-02-03T20:36:45.487Z,0.82
2023-02-03T20:38:46.341Z,0.20
2023-02-03T20:40:47.135Z,3.33
2023-02-03T20:42:48.312Z,1.50
2023-02-03T20:44:49.087Z,3.70
2023-02-03T20:46:51.700Z,7.78
2023-02-03T20:48:52.580Z,1.07
2023-02-03T20:50:53.617Z,2.47
2023-02-03T20:52:54.532Z,1.65
2023-02-03T20:54:55.567Z,1.85
2023-02-03T20:56:56.463Z,0.75
2023-02-03T20:58:57.650Z,2.00
2023-02-03T21:00:59.072Z,1.45
2023-02-03T21:03:18.540Z,0.75
2023-02-03T21:05:21.239Z,5.08
2023-02-03T21:07:23.159Z,3.10
2023-02-03T21:09:24.031Z,0.62
2023-02-03T21:11:26.712Z,1.27
2023-02-03T21:13:29.135Z,0.40
2023-02-03T21:15:31.377Z,0.40
2023-02-03T21:17:34.068Z,0.20
2023-02-03T21:19:34.893Z,0.10
2023-02-03T21:21:38.719Z,0.70
2023-02-03T21:23:40.517Z,0.37
2023-02-03T21:25:41.320Z,2.15
2023-02-03T21:27:44.013Z,3.40
2023-02-03T21:29:44.994Z,0.53
2023-02-03T21:31:45.911Z,0.20
2023-02-03T21:33:46.753Z,1.02
2023-02-03T21:35:47.633Z,0.62
2023-02-03T21:37:48.535Z,1.12
2023-02-03T21:39:49.530Z,0.80
2023-02-03T21:41:51.491Z,0.80
2023-02-03T21:43:53.869Z,2.47
2023-02-03T21:45:55.115Z,0.25
2023-02-03T21:47:57.367Z,6.55
2023-02-03T21:50:00.073Z,0.25
2023-02-03T21:52:00.992Z,0.30
2023-02-03T21:54:03.766Z,0.50
2023-02-03T21:56:12.428Z,0.40
2023-02-03T21:58:30.187Z,0.23
2023-02-03T22:00:45.428Z,0.20
2023-02-03T22:02:48.242Z,1.00
2023-02-03T22:04:49.052Z,0.50
2023-02-03T22:06:52.247Z,3.17
2023-02-03T22:08:54.848Z,0.10
2023-02-03T22:10:55.628Z,0.40
2023-02-03T22:12:56.423Z,0.30
2023-02-03T22:15:00.233Z,5.47
2023-02-03T22:17:01.147Z,0.20
2023-02-03T22:19:02.006Z,1.17
2023-02-03T22:21:02.791Z,0.10
2023-02-03T22:23:04.215Z,0.20
2023-02-03T22:25:05.453Z,0.35
2023-02-03T22:27:06.886Z,0.20
2023-02-03T22:29:10.433Z,2.98
2023-02-03T22:31:12.213Z,0.50
2023-02-03T22:33:13.045Z,1.17
2023-02-03T22:35:14.050Z,0.20
2023-02-03T22:37:15.050Z,0.37
2023-02-03T22:39:15.942Z,0.20
2023-02-03T22:41:16.853Z,5.80
2023-02-03T22:43:17.717Z,0.20
2023-02-03T22:45:18.902Z,14.15
2023-02-03T22:47:19.703Z,0.20
2023-02-03T22:49:20.581Z,1.82
2023-02-03T22:51:21.365Z,0.28
2023-02-03T22:53:22.273Z,0.20
2023-02-03T22:55:23.357Z,0.20
2023-02-03T22:57:24.436Z,0.20
2023-02-03T22:59:25.324Z,20.27
2023-02-03T23:01:26.113Z,0.47
2023-02-03T23:03:29.104Z,1.07
2023-02-03T23:05:30.818Z,0.10
2023-02-03T23:07:31.889Z,0.30
2023-02-03T23:09:32.677Z,0.80
2023-02-03T23:11:33.471Z,7.33
2023-02-03T23:13:34.386Z,0.10
2023-02-03T23:15:35.290Z,0.30
2023-02-03T23:17:36.179Z,0.25
2023-02-03T23:19:37.072Z,0.35
2023-02-03T23:21:37.972Z,0.25
2023-02-03T23:23:39.645Z,3.35
2023-02-03T23:25:40.461Z,0.30
2023-02-03T23:27:41.396Z,1.37
2023-02-03T23:29:42.865Z,0.80
2023-02-03T23:31:43.813Z,3.52
2023-02-03T23:33:46.673Z,0.50
2023-02-03T23:35:48.760Z,0.40
2023-02-03T23:37:49.690Z,0.72
2023-02-03T23:39:50.562Z,0.20
2023-02-03T23:41:51.461Z,0.40
2023-02-03T23:43:52.341Z,0.20
2023-02-03T23:45:53.136Z,0.20
2023-02-03T23:47:54.057Z,2.35
2023-02-03T23:49:54.999Z,0.80
2023-02-03T23:51:55.925Z,0.20
2023-02-03T23:53:56.899Z,0.72
2023-02-03T23:55:57.786Z,2.17
2023-02-03T23:57:58.610Z,0.10
2023-02-03T23:59:59.495Z,0.20
